createdAt,value
2018-06-02T00:00:52.606Z,18.20
2018-06-02T00:03:20.145Z,18.10
2018-06-02T00:05:48.426Z,18.20
2018-06-02T00:08:16.706Z,18.20
2018-06-02T00:10:44.993Z,18.20
2018-06-02T00:13:12.501Z,18.20
2018-06-02T00:15:40.043Z,18.30
2018-06-02T00:18:07.558Z,18.20
2018-06-02T00:20:35.854Z,18.20
2018-06-02T00:23:03.368Z,18.20
2018-06-02T00:25:31.665Z,18.20
2018-06-02T00:27:59.940Z,18.20
2018-06-02T00:30:27.474Z,18.20
2018-06-02T00:32:55.012Z,18.20
2018-06-02T00:35:22.529Z,18.20
2018-06-02T00:37:50.816Z,18.20
2018-06-02T00:40:18.330Z,18.10
2018-06-02T00:42:45.862Z,18.20
2018-06-02T00:45:13.382Z,18.20
2018-06-02T00:47:41.669Z,18.10
2018-06-02T00:50:09.172Z,18.00
2018-06-02T00:52:36.699Z,18.10
2018-06-02T00:55:07.169Z,18.10
2018-06-02T00:57:34.685Z,18.10
2018-06-02T01:00:02.221Z,18.10
2018-06-02T01:02:30.488Z,18.10
2018-06-02T01:04:58.772Z,18.20
2018-06-02T01:07:27.050Z,18.10
2018-06-02T01:09:55.346Z,18.20
2018-06-02T01:12:22.851Z,18.10
2018-06-02T01:14:50.376Z,18.20
2018-06-02T01:17:17.891Z,18.20
2018-06-02T01:19:46.180Z,18.30
2018-06-02T01:22:13.693Z,18.30
2018-06-02T01:24:41.218Z,18.20
2018-06-02T01:27:08.750Z,18.20
2018-06-02T01:29:37.021Z,18.20
2018-06-02T01:32:05.312Z,18.20
2018-06-02T01:34:32.825Z,18.20
2018-06-02T01:37:00.361Z,18.30
2018-06-02T01:39:27.882Z,18.20
2018-06-02T01:41:56.172Z,18.20
2018-06-02T01:44:23.691Z,18.20
2018-06-02T01:46:51.981Z,18.20
2018-06-02T01:49:20.282Z,18.30
2018-06-02T01:51:47.788Z,18.20
2018-06-02T01:54:15.312Z,18.20
2018-06-02T01:56:42.828Z,18.20
2018-06-02T01:59:11.121Z,18.30
2018-06-02T02:01:39.392Z,18.20
2018-06-02T02:04:07.684Z,18.20
2018-06-02T02:06:35.210Z,18.20
2018-06-02T02:09:03.517Z,18.20
2018-06-02T02:11:31.026Z,18.20
2018-06-02T02:13:58.533Z,18.20
2018-06-02T02:16:26.061Z,18.20
2018-06-02T02:18:53.569Z,18.10
2018-06-02T02:21:21.092Z,18.00
2018-06-02T02:23:49.380Z,18.00
2018-06-02T02:26:17.296Z,18.00
2018-06-02T02:28:44.817Z,17.90
2018-06-02T02:31:12.359Z,17.90
2018-06-02T02:33:39.873Z,17.90
2018-06-02T02:36:07.385Z,17.90
2018-06-02T02:38:34.919Z,17.90
2018-06-02T02:41:03.189Z,17.80
2018-06-02T02:43:30.709Z,17.80
2018-06-02T02:45:58.234Z,17.80
2018-06-02T02:48:25.777Z,17.90
2018-06-02T02:50:54.061Z,17.80
2018-06-02T02:53:22.392Z,17.80
2018-06-02T02:55:49.918Z,17.80
2018-06-02T02:58:17.470Z,17.80
2018-06-02T03:00:44.987Z,17.80
2018-06-02T03:03:12.508Z,17.80
2018-06-02T03:05:40.029Z,17.80
2018-06-02T03:08:08.305Z,17.80
2018-06-02T03:10:36.612Z,17.80
2018-06-02T03:13:04.118Z,17.80
2018-06-02T03:15:31.651Z,17.80
2018-06-02T03:17:59.178Z,17.80
2018-06-02T03:20:26.713Z,17.80
2018-06-02T03:22:54.995Z,17.80
2018-06-02T03:25:23.264Z,17.70
2018-06-02T03:27:51.557Z,17.70
2018-06-02T03:30:19.071Z,17.70
2018-06-02T03:32:46.593Z,17.70
2018-06-02T03:35:14.096Z,17.80
2018-06-02T03:37:41.617Z,17.70
2018-06-02T03:40:09.134Z,17.60
2018-06-02T03:42:37.434Z,17.70
2018-06-02T03:45:04.937Z,17.70
2018-06-02T03:47:32.470Z,17.60
2018-06-02T03:49:59.985Z,17.70
2018-06-02T03:52:28.261Z,17.70
2018-06-02T03:54:56.581Z,17.70
2018-06-02T03:57:24.099Z,17.70
2018-06-02T03:59:52.390Z,17.70
2018-06-02T04:02:19.913Z,17.70
2018-06-02T04:04:47.444Z,17.70
2018-06-02T04:07:14.963Z,17.70
2018-06-02T04:09:42.492Z,17.70
2018-06-02T04:12:10.924Z,17.70
2018-06-02T04:14:38.415Z,17.70
2018-06-02T04:17:05.937Z,17.80
2018-06-02T04:19:33.449Z,17.80
2018-06-02T04:22:00.974Z,17.80
2018-06-02T04:24:28.477Z,17.80
2018-06-02T04:26:56.782Z,17.80
2018-06-02T04:29:24.296Z,17.80
2018-06-02T04:31:51.830Z,17.80
2018-06-02T04:34:19.332Z,17.80
2018-06-02T04:36:47.642Z,17.80
2018-06-02T04:39:15.175Z,17.80
2018-06-02T04:41:43.444Z,17.90
2018-06-02T04:44:11.741Z,17.90
2018-06-02T04:46:39.244Z,17.90
2018-06-02T04:49:06.774Z,17.90
2018-06-02T04:51:34.294Z,18.00
2018-06-02T04:54:02.669Z,17.90
2018-06-02T04:56:30.937Z,17.90
2018-06-02T04:58:59.237Z,18.00
2018-06-02T05:01:26.771Z,18.00
2018-06-02T05:03:54.287Z,18.10
2018-06-02T05:06:21.826Z,17.90
2018-06-02T05:08:49.348Z,18.10
2018-06-02T05:11:16.887Z,18.10
2018-06-02T05:13:44.401Z,18.00
2018-06-02T05:16:11.937Z,17.90
2018-06-02T05:18:40.223Z,18.10
2018-06-02T05:21:08.518Z,18.20
2018-06-02T05:23:36.035Z,18.20
2018-06-02T05:26:03.574Z,18.30
2018-06-02T05:28:31.094Z,18.30
2018-06-02T05:30:58.617Z,18.40
2018-06-02T05:33:26.923Z,18.50
2018-06-02T05:35:54.433Z,18.40
2018-06-02T05:38:21.979Z,18.50
2018-06-02T05:40:49.484Z,18.60
2018-06-02T05:43:17.786Z,18.70
2018-06-02T05:45:45.294Z,18.70
2018-06-02T05:48:12.840Z,18.70
2018-06-02T05:50:40.352Z,18.80
2018-06-02T05:53:07.866Z,18.90
2018-06-02T05:55:35.383Z,18.90
2018-06-02T05:58:02.886Z,19.00
2018-06-02T06:00:30.417Z,19.00
2018-06-02T06:02:57.916Z,19.00
2018-06-02T06:05:26.210Z,19.10
2018-06-02T06:07:53.734Z,19.10
2018-06-02T06:10:21.274Z,19.10
2018-06-02T06:12:48.781Z,19.20
2018-06-02T06:15:16.302Z,19.30
2018-06-02T06:17:43.838Z,19.50
2018-06-02T06:20:11.342Z,19.50
2018-06-02T06:22:39.646Z,19.80
2018-06-02T06:25:07.181Z,19.70
2018-06-02T06:27:35.489Z,20.00
2018-06-02T06:30:03.015Z,20.00
2018-06-02T06:32:31.323Z,20.10
2018-06-02T06:34:58.836Z,20.10
2018-06-02T06:37:26.375Z,19.90
2018-06-02T06:39:53.887Z,19.90
2018-06-02T06:42:21.413Z,20.10
2018-06-02T06:44:48.946Z,20.40
2018-06-02T06:47:16.461Z,20.60
2018-06-02T06:49:44.009Z,20.50
2018-06-02T06:52:12.276Z,20.60
2018-06-02T06:54:40.568Z,20.80
2018-06-02T06:57:08.864Z,20.90
2018-06-02T06:59:36.399Z,20.90
2018-06-02T07:02:04.673Z,21.10
2018-06-02T07:04:32.950Z,21.10
2018-06-02T07:07:01.237Z,20.60
2018-06-02T07:09:28.763Z,20.60
2018-06-02T07:11:56.326Z,20.60
2018-06-02T07:14:23.825Z,20.80
2018-06-02T07:16:51.379Z,21.30
2018-06-02T07:19:18.898Z,21.30
2018-06-02T07:21:46.447Z,21.70
2018-06-02T07:24:13.965Z,21.90
2018-06-02T07:26:41.528Z,22.10
2018-06-02T07:29:09.052Z,22.10
2018-06-02T07:31:37.324Z,21.90
2018-06-02T07:34:05.622Z,22.20
2018-06-02T07:36:33.142Z,22.20
2018-06-02T07:39:00.685Z,22.60
2018-06-02T07:41:28.215Z,22.80
2018-06-02T07:43:55.748Z,22.90
2018-06-02T07:46:24.020Z,23.00
2018-06-02T07:48:52.322Z,23.00
2018-06-02T07:51:19.843Z,23.00
2018-06-02T07:53:48.113Z,23.40
2018-06-02T07:56:15.647Z,23.40
2018-06-02T07:58:43.151Z,23.60
2018-06-02T08:01:11.459Z,24.10
2018-06-02T08:03:38.968Z,24.10
2018-06-02T08:06:06.503Z,24.50
2018-06-02T08:08:34.067Z,24.50
2018-06-02T08:11:01.583Z,24.70
2018-06-02T08:13:29.105Z,25.10
2018-06-02T08:15:57.414Z,25.80
2018-06-02T08:18:24.948Z,25.70
2018-06-02T08:20:53.216Z,25.60
2018-06-02T08:23:20.758Z,25.50
2018-06-02T08:25:48.274Z,25.70
2018-06-02T08:28:15.814Z,25.40
2018-06-02T08:30:44.093Z,26.30
2018-06-02T08:33:11.625Z,26.20
2018-06-02T08:35:39.143Z,26.00
2018-06-02T08:38:06.678Z,27.40
2018-06-02T08:40:34.183Z,28.50
2018-06-02T08:43:01.703Z,28.70
2018-06-02T08:45:29.243Z,29.40
2018-06-02T08:47:57.512Z,29.90
2018-06-02T08:50:25.815Z,30.60
2018-06-02T08:52:53.334Z,30.50
2018-06-02T08:55:21.622Z,31.90
2018-06-02T08:57:49.914Z,32.30
2018-06-02T09:00:17.492Z,32.30
2018-06-02T09:02:45.010Z,32.80
2018-06-02T09:05:13.305Z,32.90
2018-06-02T09:07:40.851Z,33.00
2018-06-02T09:10:09.133Z,33.50
2018-06-02T09:12:36.671Z,33.50
2018-06-02T09:15:04.285Z,33.40
2018-06-02T09:17:31.823Z,33.90
2018-06-02T09:19:59.374Z,34.00
2018-06-02T09:22:27.661Z,33.40
2018-06-02T09:24:55.172Z,33.40
2018-06-02T09:27:22.715Z,33.90
2018-06-02T09:29:50.234Z,33.90
2018-06-02T09:32:17.751Z,33.80
2018-06-02T09:34:45.292Z,34.30
2018-06-02T09:37:12.807Z,33.90
2018-06-02T09:39:40.378Z,33.40
2018-06-02T09:42:07.903Z,32.90
2018-06-02T09:44:36.949Z,32.70
2018-06-02T09:47:04.455Z,32.60
2018-06-02T09:49:32.847Z,31.40
2018-06-02T09:52:00.361Z,31.50
2018-06-02T09:54:27.896Z,31.90
2018-06-02T09:56:55.417Z,32.40
2018-06-02T09:59:23.709Z,29.70
2018-06-02T10:01:51.262Z,29.60
2018-06-02T10:04:19.548Z,30.80
2018-06-02T10:06:47.081Z,30.80
2018-06-02T10:09:15.370Z,30.40
2018-06-02T10:11:43.658Z,30.70
2018-06-02T10:14:11.183Z,30.70
2018-06-02T10:16:38.713Z,30.10
2018-06-02T10:19:06.664Z,30.00
2018-06-02T10:21:34.264Z,30.20
2018-06-02T10:24:01.733Z,29.90
2018-06-02T10:26:30.034Z,29.50
2018-06-02T10:28:57.562Z,29.50
2018-06-02T10:31:25.090Z,29.50
2018-06-02T10:33:52.621Z,30.00
2018-06-02T10:36:20.151Z,30.00
2018-06-02T10:38:48.455Z,28.50
2018-06-02T10:41:15.968Z,28.40
2018-06-02T10:43:43.485Z,29.40
2018-06-02T10:46:11.023Z,29.90
2018-06-02T10:48:38.546Z,29.80
2018-06-02T10:51:06.854Z,29.80
2018-06-02T10:53:35.130Z,30.10
2018-06-02T10:56:03.430Z,29.70
2018-06-02T10:58:30.946Z,29.70
2018-06-02T11:00:59.259Z,30.10
2018-06-02T11:03:26.773Z,30.10
2018-06-02T11:05:54.301Z,30.60
2018-06-02T11:08:21.822Z,30.50
2018-06-02T11:10:49.336Z,30.00
2018-06-02T11:13:16.883Z,30.50
2018-06-02T11:15:44.393Z,31.00
2018-06-02T11:18:11.933Z,31.40
2018-06-02T11:20:40.214Z,31.10
2018-06-02T11:23:08.517Z,31.30
2018-06-02T11:25:36.047Z,31.30
2018-06-02T11:28:03.585Z,31.50
2018-06-02T11:30:31.136Z,31.50
2018-06-02T11:32:58.658Z,31.00
2018-06-02T11:35:26.190Z,30.60
2018-06-02T11:37:54.483Z,30.00
2018-06-02T11:40:22.030Z,29.90
2018-06-02T11:42:50.300Z,30.30
2018-06-02T11:45:18.597Z,30.40
2018-06-02T11:47:46.133Z,30.40
2018-06-02T11:50:14.423Z,30.50
2018-06-02T11:52:42.696Z,30.80
2018-06-02T11:55:11.002Z,30.70
2018-06-02T11:57:38.519Z,30.70
2018-06-02T12:00:06.788Z,30.80
2018-06-02T12:02:34.309Z,30.80
2018-06-02T12:05:01.831Z,30.30
2018-06-02T12:07:29.359Z,29.80
2018-06-02T12:09:56.882Z,30.00
2018-06-02T12:12:24.432Z,30.20
2018-06-02T12:14:51.954Z,30.40
2018-06-02T12:17:20.258Z,30.90
2018-06-02T12:19:47.766Z,30.90
2018-06-02T12:22:15.298Z,31.50
2018-06-02T12:24:42.830Z,32.00
2018-06-02T12:27:10.369Z,31.90
2018-06-02T12:29:37.912Z,32.00
2018-06-02T12:32:05.422Z,32.40
2018-06-02T12:34:33.192Z,32.70
2018-06-02T12:37:00.724Z,32.40
2018-06-02T12:39:28.250Z,32.70
2018-06-02T12:41:56.547Z,33.20
2018-06-02T12:44:24.905Z,32.50
2018-06-02T12:46:53.231Z,33.20
2018-06-02T12:49:20.791Z,33.10
2018-06-02T12:51:48.320Z,32.50
2018-06-02T12:54:16.654Z,33.10
2018-06-02T12:56:44.190Z,33.10
2018-06-02T12:59:11.704Z,33.60
2018-06-02T13:01:39.999Z,33.00
2018-06-02T13:04:07.501Z,33.00
2018-06-02T13:06:35.047Z,33.10
2018-06-02T13:09:02.577Z,33.40
2018-06-02T13:11:30.102Z,33.20
2018-06-02T13:13:58.397Z,33.90
2018-06-02T13:16:26.671Z,32.40
2018-06-02T13:18:54.966Z,31.50
2018-06-02T13:21:22.486Z,31.50
2018-06-02T13:23:50.029Z,31.70
2018-06-02T13:26:17.563Z,30.80
2018-06-02T13:28:45.095Z,28.50
2018-06-02T13:31:12.618Z,28.90
2018-06-02T13:33:40.150Z,29.40
2018-06-02T13:36:07.686Z,28.80
2018-06-02T13:38:35.230Z,28.90
2018-06-02T13:41:02.757Z,28.30
2018-06-02T13:43:30.293Z,28.30
2018-06-02T13:45:58.482Z,27.40
2018-06-02T13:48:26.018Z,27.20
2018-06-02T13:50:53.575Z,27.80
2018-06-02T13:53:21.089Z,27.60
2018-06-02T13:55:49.402Z,26.70
2018-06-02T13:58:16.948Z,26.70
2018-06-02T14:00:44.494Z,26.50
2018-06-02T14:03:12.042Z,26.50
2018-06-02T14:05:39.577Z,26.60
2018-06-02T14:08:07.100Z,26.30
2018-06-02T14:10:34.622Z,25.60
2018-06-02T14:13:02.919Z,25.30
2018-06-02T14:15:30.489Z,25.30
2018-06-02T14:17:58.017Z,25.70
2018-06-02T14:20:26.296Z,25.80
2018-06-02T14:22:54.574Z,25.60
2018-06-02T14:25:22.891Z,25.60
2018-06-02T14:27:50.379Z,25.60
2018-06-02T14:30:17.900Z,25.70
2018-06-02T14:32:45.421Z,26.20
2018-06-02T14:35:13.722Z,27.30
2018-06-02T14:37:41.259Z,27.30
2018-06-02T14:40:09.541Z,27.20
2018-06-02T14:42:37.075Z,27.20
2018-06-02T14:45:04.608Z,28.00
2018-06-02T14:47:32.150Z,28.80
2018-06-02T14:49:59.679Z,29.00
2018-06-02T14:52:27.231Z,29.30
2018-06-02T14:54:55.505Z,27.30
2018-06-02T14:57:23.087Z,27.40
2018-06-02T14:59:50.608Z,26.60
2018-06-02T15:02:18.909Z,25.90
2018-06-02T15:04:46.482Z,25.90
2018-06-02T15:07:14.009Z,26.70
2018-06-02T15:09:42.281Z,27.10
2018-06-02T15:12:09.803Z,27.10
2018-06-02T15:14:37.340Z,26.70
2018-06-02T15:17:04.872Z,26.60
2018-06-02T15:19:33.164Z,25.80
2018-06-02T15:22:00.686Z,25.80
2018-06-02T15:24:28.220Z,26.10
2018-06-02T15:26:55.741Z,25.90
2018-06-02T15:29:23.268Z,26.00
2018-06-02T15:31:51.545Z,25.60
2018-06-02T15:34:19.841Z,26.20
2018-06-02T15:36:47.366Z,26.10
2018-06-02T15:39:14.877Z,25.90
2018-06-02T15:41:42.404Z,25.50
2018-06-02T15:44:10.696Z,25.80
2018-06-02T15:46:38.235Z,25.80
2018-06-02T15:49:06.529Z,26.30
2018-06-02T15:51:34.066Z,26.20
2018-06-02T15:54:02.333Z,26.20
2018-06-02T15:56:29.896Z,26.10
2018-06-02T15:58:57.430Z,25.60
2018-06-02T16:01:24.931Z,25.30
2018-06-02T16:03:53.217Z,25.40
2018-06-02T16:06:20.729Z,25.30
2018-06-02T16:08:48.263Z,25.40
2018-06-02T16:11:15.787Z,25.40
2018-06-02T16:13:44.078Z,25.20
2018-06-02T16:16:11.598Z,25.20
2018-06-02T16:18:39.138Z,25.00
2018-06-02T16:21:06.672Z,24.90
2018-06-02T16:23:34.232Z,24.80
2018-06-02T16:26:01.759Z,24.60
2018-06-02T16:28:29.272Z,24.30
2018-06-02T16:30:56.808Z,23.60
2018-06-02T16:33:24.325Z,22.70
2018-06-02T16:35:52.615Z,22.70
2018-06-02T16:38:20.142Z,22.60
2018-06-02T16:40:47.678Z,22.60
2018-06-02T16:43:15.185Z,22.60
2018-06-02T16:45:42.743Z,22.50
2018-06-02T16:48:10.995Z,22.60
2018-06-02T16:50:38.531Z,22.10
2018-06-02T16:53:06.078Z,21.90
2018-06-02T16:55:33.672Z,22.10
2018-06-02T16:58:01.265Z,22.10
2018-06-02T17:00:28.888Z,22.20
2018-06-02T17:03:00.835Z,22.10
2018-06-02T17:05:28.363Z,21.90
2018-06-02T17:07:55.905Z,21.70
2018-06-02T17:10:23.417Z,21.60
2018-06-02T17:12:50.951Z,21.90
2018-06-02T17:15:18.479Z,22.00
2018-06-02T17:17:45.997Z,22.10
2018-06-02T17:20:13.527Z,22.20
2018-06-02T17:22:41.324Z,22.40
2018-06-02T17:25:08.845Z,22.40
2018-06-02T17:27:36.353Z,22.20
2018-06-02T17:30:03.892Z,22.10
2018-06-02T17:32:31.414Z,22.20
2018-06-02T17:34:58.956Z,22.30
2018-06-02T17:37:26.472Z,22.00
2018-06-02T17:39:54.001Z,22.40
2018-06-02T17:42:21.526Z,22.00
2018-06-02T17:44:49.058Z,22.10
2018-06-02T17:47:16.641Z,22.30
2018-06-02T17:49:44.908Z,22.00
2018-06-02T17:52:13.202Z,22.40
2018-06-02T17:54:40.730Z,22.30
2018-06-02T17:57:09.030Z,22.10
2018-06-02T17:59:37.332Z,22.10
2018-06-02T18:02:04.877Z,22.10
2018-06-02T18:04:32.412Z,22.10
2018-06-02T18:07:00.698Z,21.80
2018-06-02T18:09:29.001Z,21.80
2018-06-02T18:11:56.509Z,21.80
2018-06-02T18:14:24.033Z,21.70
2018-06-02T18:16:51.566Z,21.50
2018-06-02T18:19:19.089Z,21.40
2018-06-02T18:21:47.374Z,21.00
2018-06-02T18:24:15.686Z,21.00
2018-06-02T18:26:43.197Z,21.00
2018-06-02T18:29:11.487Z,20.80
2018-06-02T18:31:39.921Z,20.70
2018-06-02T18:34:07.442Z,20.60
2018-06-02T18:36:34.964Z,20.60
2018-06-02T18:39:02.483Z,20.40
2018-06-02T18:41:30.009Z,20.50
2018-06-02T18:43:58.290Z,20.50
2018-06-02T18:46:26.596Z,20.10
2018-06-02T18:48:54.124Z,20.10
2018-06-02T18:51:21.676Z,20.20
2018-06-02T18:53:49.963Z,19.80
2018-06-02T18:56:18.238Z,20.00
2018-06-02T18:58:46.543Z,19.90
2018-06-02T19:01:14.066Z,19.90
2018-06-02T19:03:42.491Z,20.00
2018-06-02T19:06:10.013Z,20.00
2018-06-02T19:08:37.555Z,20.10
2018-06-02T19:11:05.836Z,20.10
2018-06-02T19:13:34.132Z,20.10
2018-06-02T19:16:01.685Z,20.10
2018-06-02T19:18:29.201Z,20.10
2018-06-02T19:20:56.735Z,20.10
2018-06-02T19:23:24.258Z,20.00
2018-06-02T19:25:52.561Z,19.80
2018-06-02T19:28:20.103Z,19.80
2018-06-02T19:30:47.648Z,19.40
2018-06-02T19:33:15.920Z,19.60
2018-06-02T19:35:44.222Z,19.60
2018-06-02T19:38:11.731Z,19.60
2018-06-02T19:40:39.261Z,19.50
2018-06-02T19:43:06.773Z,19.40
2018-06-02T19:45:35.048Z,19.40
2018-06-02T19:48:03.364Z,19.30
2018-06-02T19:50:30.886Z,19.30
2018-06-02T19:52:59.186Z,19.20
2018-06-02T19:55:26.703Z,19.20
2018-06-02T19:57:54.230Z,19.30
2018-06-02T20:00:21.762Z,19.10
2018-06-02T20:02:49.305Z,19.10
2018-06-02T20:05:16.820Z,19.00
2018-06-02T20:07:44.342Z,19.00
2018-06-02T20:10:11.870Z,19.00
2018-06-02T20:12:40.154Z,18.80
2018-06-02T20:15:08.471Z,18.80
2018-06-02T20:17:35.981Z,18.70
2018-06-02T20:20:04.286Z,18.60
2018-06-02T20:22:31.814Z,18.60
2018-06-02T20:25:00.121Z,18.50
2018-06-02T20:27:27.638Z,18.50
2018-06-02T20:29:55.185Z,18.40
2018-06-02T20:32:22.694Z,18.30
2018-06-02T20:34:50.198Z,18.30
2018-06-02T20:37:17.717Z,18.20
2018-06-02T20:39:45.233Z,18.10
2018-06-02T20:42:12.782Z,18.00
2018-06-02T20:44:40.316Z,17.90
2018-06-02T20:47:07.854Z,18.00
2018-06-02T20:49:35.368Z,17.90
2018-06-02T20:52:02.985Z,17.90
2018-06-02T20:54:30.506Z,17.80
2018-06-02T20:56:58.806Z,17.80
2018-06-02T20:59:26.321Z,17.80
2018-06-02T21:01:53.839Z,17.80
2018-06-02T21:04:21.369Z,17.70
2018-06-02T21:06:48.884Z,17.60
2018-06-02T21:09:16.405Z,17.50
2018-06-02T21:11:43.929Z,17.40
2018-06-02T21:14:12.235Z,17.40
2018-06-02T21:16:39.750Z,17.40
2018-06-02T21:19:07.252Z,17.30
2018-06-02T21:21:34.783Z,17.30
2018-06-02T21:24:03.067Z,17.10
2018-06-02T21:26:31.380Z,17.00
2018-06-02T21:28:58.885Z,17.00
2018-06-02T21:31:27.172Z,16.90
2018-06-02T21:33:55.445Z,16.90
2018-06-02T21:36:23.742Z,16.90
2018-06-02T21:38:51.261Z,16.90
2018-06-02T21:41:18.793Z,16.90
2018-06-02T21:43:46.304Z,16.80
2018-06-02T21:46:14.660Z,16.80
2018-06-02T21:48:42.163Z,16.70
2018-06-02T21:51:09.687Z,16.80
2018-06-02T21:53:37.973Z,16.80
2018-06-02T21:56:06.259Z,16.70
2018-06-02T21:58:33.785Z,16.70
2018-06-02T22:01:01.299Z,16.60
2018-06-02T22:03:28.821Z,16.60
2018-06-02T22:05:57.254Z,16.60
2018-06-02T22:08:24.760Z,16.60
2018-06-02T22:10:53.053Z,16.40
2018-06-02T22:13:20.686Z,16.50
2018-06-02T22:15:48.232Z,16.40
2018-06-02T22:18:15.746Z,16.40
2018-06-02T22:20:43.279Z,16.30
2018-06-02T22:23:11.566Z,16.40
2018-06-02T22:25:39.100Z,16.30
2018-06-02T22:28:06.622Z,16.30
2018-06-02T22:30:34.152Z,16.30
2018-06-02T22:33:01.656Z,16.30
2018-06-02T22:35:29.181Z,16.30
2018-06-02T22:37:56.708Z,16.30
2018-06-02T22:40:24.999Z,16.10
2018-06-02T22:42:52.570Z,16.10
2018-06-02T22:45:20.809Z,16.10
2018-06-02T22:47:49.112Z,16.00
2018-06-02T22:50:16.617Z,15.90
2018-06-02T22:52:44.154Z,16.00
2018-06-02T22:55:11.658Z,16.00
2018-06-02T22:57:40.082Z,15.90
2018-06-02T23:00:07.626Z,15.90
2018-06-02T23:02:35.139Z,16.00
2018-06-02T23:05:02.694Z,16.00
2018-06-02T23:07:30.206Z,15.90
2018-06-02T23:09:57.724Z,15.90
2018-06-02T23:12:25.236Z,15.90
2018-06-02T23:14:52.770Z,15.80
2018-06-02T23:17:20.286Z,15.90
2018-06-02T23:19:47.821Z,15.80
2018-06-02T23:25:49.208Z,15.80
2018-06-02T23:28:17.713Z,15.70
2018-06-02T23:30:46.261Z,15.70
2018-06-02T23:33:14.777Z,15.70
2018-06-02T23:35:43.385Z,15.70
2018-06-02T23:40:40.349Z,15.60
2018-06-02T23:43:10.028Z,15.60
2018-06-02T23:45:38.563Z,15.60
2018-06-02T23:48:07.111Z,15.60
2018-06-02T23:50:35.604Z,15.60
2018-06-02T23:53:04.895Z,15.50
2018-06-02T23:55:33.400Z,15.50
2018-06-02T23:58:01.915Z,15.50
